sensor_id;sensor_type;location;lat;lon;timestamp;temperature;humidity
19968;DHT22;10145;49.152;9.282;2024-03-23T00:51:18;9.20;99.90
19968;DHT22;10145;49.152;9.282;2024-03-23T00:53:43;9.20;99.90
19968;DHT22;10145;49.152;9.282;2024-03-23T00:56:09;9.10;99.90
19968;DHT22;10145;49.152;9.282;2024-03-23T00:58:34;9.10;99.90
19968;DHT22;10145;49.152;9.282;2024-03-23T01:01:00;9.10;99.90
19968;DHT22;10145;49.152;9.282;2024-03-23T01:03:26;9.20;99.90
19968;DHT22;10145;49.152;9.282;2024-03-23T01:05:51;9.10;99.90
19968;DHT22;10145;49.152;9.282;2024-03-23T01:08:19;9.20;99.90
19968;DHT22;10145;49.152;9.282;2024-03-23T01:10:54;9.10;99.90
19968;DHT22;10145;49.152;9.282;2024-03-23T01:13:20;9.30;99.90
19968;DHT22;10145;49.152;9.282;2024-03-23T01:15:51;9.20;99.90
19968;DHT22;10145;49.152;9.282;2024-03-23T01:18:17;9.30;99.90
19968;DHT22;10145;49.152;9.282;2024-03-23T01:20:43;9.40;99.90
19968;DHT22;10145;49.152;9.282;2024-03-23T01:23:09;9.50;99.90
19968;DHT22;10145;49.152;9.282;2024-03-23T01:25:34;9.40;99.90
19968;DHT22;10145;49.152;9.282;2024-03-23T01:28:00;9.40;99.90
19968;DHT22;10145;49.152;9.282;2024-03-23T01:30:25;9.60;99.90
19968;DHT22;10145;49.152;9.282;2024-03-23T01:32:51;9.70;99.90
19968;DHT22;10145;49.152;9.282;2024-03-23T01:35:16;9.60;99.90
19968;DHT22;10145;49.152;9.282;2024-03-23T01:37:42;9.70;99.90
19968;DHT22;10145;49.152;9.282;2024-03-23T01:40:08;9.60;99.90
19968;DHT22;10145;49.152;9.282;2024-03-23T01:42:34;9.60;99.90
19968;DHT22;10145;49.152;9.282;2024-03-23T01:44:59;9.80;99.90
19968;DHT22;10145;49.152;9.282;2024-03-23T01:47:25;9.90;99.90
19968;DHT22;10145;49.152;9.282;2024-03-23T01:49:50;9.60;99.90
19968;DHT22;10145;49.152;9.282;2024-03-23T01:52:17;9.90;99.90
19968;DHT22;10145;49.152;9.282;2024-03-23T01:54:43;9.70;99.90
19968;DHT22;10145;49.152;9.282;2024-03-23T01:57:10;9.70;99.90
19968;DHT22;10145;49.152;9.282;2024-03-23T01:59:36;9.60;99.90
19968;DHT22;10145;49.152;9.282;2024-03-23T02:02:01;9.60;99.90
19968;DHT22;10145;49.152;9.282;2024-03-23T02:04:27;9.60;99.90
19968;DHT22;10145;49.152;9.282;2024-03-23T02:06:52;9.50;99.90
19968;DHT22;10145;49.152;9.282;2024-03-23T02:09:18;9.40;99.90
19968;DHT22;10145;49.152;9.282;2024-03-23T02:11:44;9.30;99.90
19968;DHT22;10145;49.152;9.282;2024-03-23T02:14:09;9.20;99.90
19968;DHT22;10145;49.152;9.282;2024-03-23T02:16:35;9.30;99.90
19968;DHT22;10145;49.152;9.282;2024-03-23T02:19:00;9.20;99.90
19968;DHT22;10145;49.152;9.282;2024-03-23T02:21:26;9.30;99.90
19968;DHT22;10145;49.152;9.282;2024-03-23T02:23:53;9.30;99.90
19968;DHT22;10145;49.152;9.282;2024-03-23T02:26:18;9.10;99.90
19968;DHT22;10145;49.152;9.282;2024-03-23T02:28:44;9.30;99.90
19968;DHT22;10145;49.152;9.282;2024-03-23T02:31:09;9.10;99.90
19968;DHT22;10145;49.152;9.282;2024-03-23T02:33:35;9.00;99.90
19968;DHT22;10145;49.152;9.282;2024-03-23T02:36:03;8.90;99.90
19968;DHT22;10145;49.152;9.282;2024-03-23T02:38:29;8.90;99.90
19968;DHT22;10145;49.152;9.282;2024-03-23T02:40:54;8.90;99.90
19968;DHT22;10145;49.152;9.282;2024-03-23T02:43:20;9.00;99.90
19968;DHT22;10145;49.152;9.282;2024-03-23T02:45:46;9.00;99.90
19968;DHT22;10145;49.152;9.282;2024-03-23T02:48:12;9.10;99.90
19968;DHT22;10145;49.152;9.282;2024-03-23T02:50:38;9.20;99.90
19968;DHT22;10145;49.152;9.282;2024-03-23T02:53:03;9.30;99.90
19968;DHT22;10145;49.152;9.282;2024-03-23T02:55:29;9.50;99.90
19968;DHT22;10145;49.152;9.282;2024-03-23T02:57:54;9.70;99.90
19968;DHT22;10145;49.152;9.282;2024-03-23T03:00:21;9.90;99.90
19968;DHT22;10145;49.152;9.282;2024-03-23T03:02:46;10.00;99.90
19968;DHT22;10145;49.152;9.282;2024-03-23T03:05:12;10.10;99.90
19968;DHT22;10145;49.152;9.282;2024-03-23T03:07:39;10.00;99.90
19968;DHT22;10145;49.152;9.282;2024-03-23T03:10:06;9.90;99.90
19968;DHT22;10145;49.152;9.282;2024-03-23T03:12:34;9.90;99.90
19968;DHT22;10145;49.152;9.282;2024-03-23T03:14:59;9.80;99.90
19968;DHT22;10145;49.152;9.282;2024-03-23T03:17:25;9.90;99.90
19968;DHT22;10145;49.152;9.282;2024-03-23T03:19:50;9.60;99.90
19968;DHT22;10145;49.152;9.282;2024-03-23T03:22:21;9.50;99.90
19968;DHT22;10145;49.152;9.282;2024-03-23T03:24:46;9.30;99.90
19968;DHT22;10145;49.152;9.282;2024-03-23T03:27:12;9.20;99.90
19968;DHT22;10145;49.152;9.282;2024-03-23T03:29:38;9.20;99.90
19968;DHT22;10145;49.152;9.282;2024-03-23T03:32:03;9.20;99.90
19968;DHT22;10145;49.152;9.282;2024-03-23T03:34:29;9.30;99.90
19968;DHT22;10145;49.152;9.282;2024-03-23T03:36:56;9.30;99.90
19968;DHT22;10145;49.152;9.282;2024-03-23T03:39:21;9.40;99.90
19968;DHT22;10145;49.152;9.282;2024-03-23T03:41:48;9.30;99.90
19968;DHT22;10145;49.152;9.282;2024-03-23T03:44:14;9.30;99.90
19968;DHT22;10145;49.152;9.282;2024-03-23T03:46:39;9.30;99.90
19968;DHT22;10145;49.152;9.282;2024-03-23T03:49:05;9.40;99.90
19968;DHT22;10145;49.152;9.282;2024-03-23T03:51:31;9.50;99.90
19968;DHT22;10145;49.152;9.282;2024-03-23T03:53:56;9.70;99.90
19968;DHT22;10145;49.152;9.282;2024-03-23T03:56:22;10.00;99.90
19968;DHT22;10145;49.152;9.282;2024-03-23T03:58:48;10.00;99.90
19968;DHT22;10145;49.152;9.282;2024-03-23T04:01:14;10.10;99.90
19968;DHT22;10145;49.152;9.282;2024-03-23T04:03:39;10.10;99.90
19968;DHT22;10145;49.152;9.282;2024-03-23T04:06:09;10.30;99.90
19968;DHT22;10145;49.152;9.282;2024-03-23T04:08:35;10.30;99.90
19968;DHT22;10145;49.152;9.282;2024-03-23T04:11:00;10.30;99.90
19968;DHT22;10145;49.152;9.282;2024-03-23T04:13:26;10.30;99.90
19968;DHT22;10145;49.152;9.282;2024-03-23T04:15:55;10.30;99.90
19968;DHT22;10145;49.152;9.282;2024-03-23T04:18:21;10.40;99.90
19968;DHT22;10145;49.152;9.282;2024-03-23T04:20:48;10.30;99.90
19968;DHT22;10145;49.152;9.282;2024-03-23T04:23:13;10.50;99.90
19968;DHT22;10145;49.152;9.282;2024-03-23T04:25:39;10.60;99.90
19968;DHT22;10145;49.152;9.282;2024-03-23T04:28:05;10.80;99.90
19968;DHT22;10145;49.152;9.282;2024-03-23T04:30:30;10.50;99.90
19968;DHT22;10145;49.152;9.282;2024-03-23T04:32:57;10.40;99.90
19968;DHT22;10145;49.152;9.282;2024-03-23T04:35:24;10.20;99.90
19968;DHT22;10145;49.152;9.282;2024-03-23T04:37:51;10.10;99.90
19968;DHT22;10145;49.152;9.282;2024-03-23T04:40:21;10.00;99.90
19968;DHT22;10145;49.152;9.282;2024-03-23T04:42:46;10.00;99.90
19968;DHT22;10145;49.152;9.282;2024-03-23T04:45:12;10.00;99.90
19968;DHT22;10145;49.152;9.282;2024-03-23T04:47:38;10.00;99.90
19968;DHT22;10145;49.152;9.282;2024-03-23T04:50:04;9.90;99.90
19968;DHT22;10145;49.152;9.282;2024-03-23T04:52:30;9.90;99.90
19968;DHT22;10145;49.152;9.282;2024-03-23T04:54:56;9.90;99.90
19968;DHT22;10145;49.152;9.282;2024-03-23T04:57:22;9.90;99.90
19968;DHT22;10145;49.152;9.282;2024-03-23T04:59:47;9.90;99.90
19968;DHT22;10145;49.152;9.282;2024-03-23T05:02:14;9.90;99.90
19968;DHT22;10145;49.152;9.282;2024-03-23T05:04:39;9.80;99.90
19968;DHT22;10145;49.152;9.282;2024-03-23T05:07:06;9.80;99.90
19968;DHT22;10145;49.152;9.282;2024-03-23T05:09:31;9.80;99.90
19968;DHT22;10145;49.152;9.282;2024-03-23T05:12:01;9.80;99.90
19968;DHT22;10145;49.152;9.282;2024-03-23T05:14:26;9.80;99.90
19968;DHT22;10145;49.152;9.282;2024-03-23T05:16:53;9.70;99.90
19968;DHT22;10145;49.152;9.282;2024-03-23T05:19:18;9.80;99.90
19968;DHT22;10145;49.152;9.282;2024-03-23T05:21:44;9.80;99.90
19968;DHT22;10145;49.152;9.282;2024-03-23T05:24:09;9.80;99.90
19968;DHT22;10145;49.152;9.282;2024-03-23T05:26:35;9.70;99.90
19968;DHT22;10145;49.152;9.282;2024-03-23T05:29:02;9.70;99.90
19968;DHT22;10145;49.152;9.282;2024-03-23T05:31:29;9.70;99.90
19968;DHT22;10145;49.152;9.282;2024-03-23T05:33:55;9.70;99.90
19968;DHT22;10145;49.152;9.282;2024-03-23T05:36:21;9.70;99.90
19968;DHT22;10145;49.152;9.282;2024-03-23T05:38:47;9.70;99.90
19968;DHT22;10145;49.152;9.282;2024-03-23T05:41:13;9.70;99.90
19968;DHT22;10145;49.152;9.282;2024-03-23T05:43:39;9.60;99.90
19968;DHT22;10145;49.152;9.282;2024-03-23T05:46:05;9.50;99.90
19968;DHT22;10145;49.152;9.282;2024-03-23T05:48:31;9.40;99.90
19968;DHT22;10145;49.152;9.282;2024-03-23T05:50:57;9.30;99.90
19968;DHT22;10145;49.152;9.282;2024-03-23T05:53:23;9.30;99.90
19968;DHT22;10145;49.152;9.282;2024-03-23T05:55:50;9.20;99.90
19968;DHT22;10145;49.152;9.282;2024-03-23T05:58:17;9.40;99.90
19968;DHT22;10145;49.152;9.282;2024-03-23T06:00:44;9.20;99.90
19968;DHT22;10145;49.152;9.282;2024-03-23T06:03:10;9.20;99.90
19968;DHT22;10145;49.152;9.282;2024-03-23T06:05:36;9.10;99.90
19968;DHT22;10145;49.152;9.282;2024-03-23T06:08:02;9.00;99.90
19968;DHT22;10145;49.152;9.282;2024-03-23T06:10:28;9.00;99.90
19968;DHT22;10145;49.152;9.282;2024-03-23T06:12:53;8.90;99.90
19968;DHT22;10145;49.152;9.282;2024-03-23T06:15:19;8.80;99.90
19968;DHT22;10145;49.152;9.282;2024-03-23T06:17:45;8.80;99.90
19968;DHT22;10145;49.152;9.282;2024-03-23T06:20:10;8.80;99.90
19968;DHT22;10145;49.152;9.282;2024-03-23T06:22:37;8.70;99.90
19968;DHT22;10145;49.152;9.282;2024-03-23T06:25:02;8.80;99.90
19968;DHT22;10145;49.152;9.282;2024-03-23T06:27:28;8.80;99.90
19968;DHT22;10145;49.152;9.282;2024-03-23T06:29:54;8.80;99.90
19968;DHT22;10145;49.152;9.282;2024-03-23T06:32:20;8.70;99.90
19968;DHT22;10145;49.152;9.282;2024-03-23T06:34:46;8.80;99.90
19968;DHT22;10145;49.152;9.282;2024-03-23T06:37:11;8.80;99.90
19968;DHT22;10145;49.152;9.282;2024-03-23T06:39:38;8.70;99.90
19968;DHT22;10145;49.152;9.282;2024-03-23T06:42:04;8.70;99.90
19968;DHT22;10145;49.152;9.282;2024-03-23T06:44:29;8.70;99.90
19968;DHT22;10145;49.152;9.282;2024-03-23T06:46:56;8.60;99.90
19968;DHT22;10145;49.152;9.282;2024-03-23T06:49:23;8.60;99.90
19968;DHT22;10145;49.152;9.282;2024-03-23T06:51:48;8.60;99.90
19968;DHT22;10145;49.152;9.282;2024-03-23T06:54:14;8.70;99.90
19968;DHT22;10145;49.152;9.282;2024-03-23T06:56:40;8.60;99.90
19968;DHT22;10145;49.152;9.282;2024-03-23T06:59:06;8.50;99.90
19968;DHT22;10145;49.152;9.282;2024-03-23T07:01:32;8.20;99.90
19968;DHT22;10145;49.152;9.282;2024-03-23T07:03:57;8.00;99.90
19968;DHT22;10145;49.152;9.282;2024-03-23T07:06:23;7.80;99.90
19968;DHT22;10145;49.152;9.282;2024-03-23T07:08:48;7.80;99.90
19968;DHT22;10145;49.152;9.282;2024-03-23T07:11:21;7.80;99.90
19968;DHT22;10145;49.152;9.282;2024-03-23T07:13:49;7.90;99.90
19968;DHT22;10145;49.152;9.282;2024-03-23T07:16:15;8.00;99.90
19968;DHT22;10145;49.152;9.282;2024-03-23T07:18:41;7.90;99.90
19968;DHT22;10145;49.152;9.282;2024-03-23T07:21:07;7.80;99.90
19968;DHT22;10145;49.152;9.282;2024-03-23T07:23:33;7.70;99.90
19968;DHT22;10145;49.152;9.282;2024-03-23T07:26:03;7.60;99.90
19968;DHT22;10145;49.152;9.282;2024-03-23T07:28:30;7.50;99.90
19968;DHT22;10145;49.152;9.282;2024-03-23T07:31:08;7.40;99.90
19968;DHT22;10145;49.152;9.282;2024-03-23T07:33:42;7.40;99.90
19968;DHT22;10145;49.152;9.282;2024-03-23T07:36:08;7.30;99.90
19968;DHT22;10145;49.152;9.282;2024-03-23T07:38:33;7.40;99.90
19968;DHT22;10145;49.152;9.282;2024-03-23T07:41:10;7.40;99.90
19968;DHT22;10145;49.152;9.282;2024-03-23T07:43:38;7.40;99.90
19968;DHT22;10145;49.152;9.282;2024-03-23T07:46:04;7.30;99.90
19968;DHT22;10145;49.152;9.282;2024-03-23T07:48:30;7.30;99.90
19968;DHT22;10145;49.152;9.282;2024-03-23T07:51:17;7.40;99.90
19968;DHT22;10145;49.152;9.282;2024-03-23T07:53:44;7.20;99.90
19968;DHT22;10145;49.152;9.282;2024-03-23T07:56:11;7.30;99.90
19968;DHT22;10145;49.152;9.282;2024-03-23T07:58:38;7.30;99.90
19968;DHT22;10145;49.152;9.282;2024-03-23T08:01:08;7.30;99.90
19968;DHT22;10145;49.152;9.282;2024-03-23T08:03:35;7.30;99.90
19968;DHT22;10145;49.152;9.282;2024-03-23T08:06:17;7.50;99.90
19968;DHT22;10145;49.152;9.282;2024-03-23T08:08:46;7.80;99.90
19968;DHT22;10145;49.152;9.282;2024-03-23T08:11:12;7.90;99.90
19968;DHT22;10145;49.152;9.282;2024-03-23T08:13:40;7.90;99.90
19968;DHT22;10145;49.152;9.282;2024-03-23T08:16:06;8.00;99.90
19968;DHT22;10145;49.152;9.282;2024-03-23T08:18:32;8.00;99.90
19968;DHT22;10145;49.152;9.282;2024-03-23T08:20:58;8.10;99.90
19968;DHT22;10145;49.152;9.282;2024-03-23T08:23:28;8.10;99.90
19968;DHT22;10145;49.152;9.282;2024-03-23T08:26:04;8.10;99.90
19968;DHT22;10145;49.152;9.282;2024-03-23T08:28:30;7.90;99.90
19968;DHT22;10145;49.152;9.282;2024-03-23T08:30:56;8.10;99.90
19968;DHT22;10145;49.152;9.282;2024-03-23T08:33:22;8.20;99.90
19968;DHT22;10145;49.152;9.282;2024-03-23T08:35:59;8.30;99.90
19968;DHT22;10145;49.152;9.282;2024-03-23T08:38:25;8.20;99.90
19968;DHT22;10145;49.152;9.282;2024-03-23T08:40:58;8.20;99.90
19968;DHT22;10145;49.152;9.282;2024-03-23T08:43:24;8.10;99.90
19968;DHT22;10145;49.152;9.282;2024-03-23T08:45:49;8.10;99.90
19968;DHT22;10145;49.152;9.282;2024-03-23T08:48:15;8.20;99.90
19968;DHT22;10145;49.152;9.282;2024-03-23T08:50:40;8.40;99.90
19968;DHT22;10145;49.152;9.282;2024-03-23T08:53:06;8.40;99.90
19968;DHT22;10145;49.152;9.282;2024-03-23T08:55:32;8.60;99.90
19968;DHT22;10145;49.152;9.282;2024-03-23T08:57:57;8.80;99.90
19968;DHT22;10145;49.152;9.282;2024-03-23T09:00:23;9.10;99.90
19968;DHT22;10145;49.152;9.282;2024-03-23T09:02:48;9.20;99.90
19968;DHT22;10145;49.152;9.282;2024-03-23T09:05:14;9.20;99.90
19968;DHT22;10145;49.152;9.282;2024-03-23T09:07:39;9.20;99.90
19968;DHT22;10145;49.152;9.282;2024-03-23T09:10:05;9.40;99.90
19968;DHT22;10145;49.152;9.282;2024-03-23T09:12:31;9.40;99.90
19968;DHT22;10145;49.152;9.282;2024-03-23T09:14:56;9.50;99.90
19968;DHT22;10145;49.152;9.282;2024-03-23T09:17:22;9.30;99.90
19968;DHT22;10145;49.152;9.282;2024-03-23T09:19:47;9.20;99.90
19968;DHT22;10145;49.152;9.282;2024-03-23T09:22:13;8.90;99.90
19968;DHT22;10145;49.152;9.282;2024-03-23T09:24:39;8.70;99.90
19968;DHT22;10145;49.152;9.282;2024-03-23T09:27:04;8.70;99.90
19968;DHT22;10145;49.152;9.282;2024-03-23T09:29:30;8.70;99.90
19968;DHT22;10145;49.152;9.282;2024-03-23T09:31:55;8.70;99.90
19968;DHT22;10145;49.152;9.282;2024-03-23T09:34:21;8.70;99.90
19968;DHT22;10145;49.152;9.282;2024-03-23T09:36:50;8.70;99.90
19968;DHT22;10145;49.152;9.282;2024-03-23T09:39:15;8.70;99.90
19968;DHT22;10145;49.152;9.282;2024-03-23T09:41:41;8.80;99.90
19968;DHT22;10145;49.152;9.282;2024-03-23T09:44:07;8.90;99.90
19968;DHT22;10145;49.152;9.282;2024-03-23T09:46:32;8.90;99.90
19968;DHT22;10145;49.152;9.282;2024-03-23T09:49:01;8.80;99.90
19968;DHT22;10145;49.152;9.282;2024-03-23T09:51:29;8.90;99.90
19968;DHT22;10145;49.152;9.282;2024-03-23T09:53:55;9.30;99.90
19968;DHT22;10145;49.152;9.282;2024-03-23T09:56:21;9.30;99.90
19968;DHT22;10145;49.152;9.282;2024-03-23T09:58:47;9.50;99.90
19968;DHT22;10145;49.152;9.282;2024-03-23T10:01:12;9.80;99.90
19968;DHT22;10145;49.152;9.282;2024-03-23T10:03:47;10.10;99.90
19968;DHT22;10145;49.152;9.282;2024-03-23T10:06:13;10.40;99.90
19968;DHT22;10145;49.152;9.282;2024-03-23T10:08:38;10.70;99.90
19968;DHT22;10145;49.152;9.282;2024-03-23T10:11:14;10.80;99.90
19968;DHT22;10145;49.152;9.282;2024-03-23T10:13:42;11.10;99.90
19968;DHT22;10145;49.152;9.282;2024-03-23T10:16:08;11.00;99.90
19968;DHT22;10145;49.152;9.282;2024-03-23T10:18:38;11.00;99.90
19968;DHT22;10145;49.152;9.282;2024-03-23T10:21:07;10.60;99.90
19968;DHT22;10145;49.152;9.282;2024-03-23T10:23:38;10.40;99.90
19968;DHT22;10145;49.152;9.282;2024-03-23T10:26:24;10.30;99.90
19968;DHT22;10145;49.152;9.282;2024-03-23T10:28:52;10.10;99.90
19968;DHT22;10145;49.152;9.282;2024-03-23T10:31:18;9.80;99.90
19968;DHT22;10145;49.152;9.282;2024-03-23T10:33:48;9.80;99.90
19968;DHT22;10145;49.152;9.282;2024-03-23T10:36:14;9.50;99.90
19968;DHT22;10145;49.152;9.282;2024-03-23T10:38:41;9.30;99.90
19968;DHT22;10145;49.152;9.282;2024-03-23T10:41:11;9.10;99.90
19968;DHT22;10145;49.152;9.282;2024-03-23T10:43:38;9.00;99.90
19968;DHT22;10145;49.152;9.282;2024-03-23T10:46:04;8.80;99.90
19968;DHT22;10145;49.152;9.282;2024-03-23T10:48:32;8.80;99.90
19968;DHT22;10145;49.152;9.282;2024-03-23T10:50:58;8.80;99.90
19968;DHT22;10145;49.152;9.282;2024-03-23T10:53:26;9.00;99.90
19968;DHT22;10145;49.152;9.282;2024-03-23T10:55:52;9.10;99.90
19968;DHT22;10145;49.152;9.282;2024-03-23T10:58:23;9.20;99.90
19968;DHT22;10145;49.152;9.282;2024-03-23T11:00:51;9.10;99.90
19968;DHT22;10145;49.152;9.282;2024-03-23T11:03:45;9.00;99.90
19968;DHT22;10145;49.152;9.282;2024-03-23T11:06:37;8.90;99.90
19968;DHT22;10145;49.152;9.282;2024-03-23T11:09:03;8.80;99.90
19968;DHT22;10145;49.152;9.282;2024-03-23T11:11:29;8.80;99.90
19968;DHT22;10145;49.152;9.282;2024-03-23T11:13:58;8.90;99.90
19968;DHT22;10145;49.152;9.282;2024-03-23T11:16:28;9.20;99.90
19968;DHT22;10145;49.152;9.282;2024-03-23T11:19:35;9.90;99.90
19968;DHT22;10145;49.152;9.282;2024-03-23T11:22:04;10.70;99.90
19968;DHT22;10145;49.152;9.282;2024-03-23T11:24:31;10.90;99.90
19968;DHT22;10145;49.152;9.282;2024-03-23T11:26:57;11.00;99.90
19968;DHT22;10145;49.152;9.282;2024-03-23T11:29:26;11.10;99.90
19968;DHT22;10145;49.152;9.282;2024-03-23T11:31:52;10.90;99.90
19968;DHT22;10145;49.152;9.282;2024-03-23T11:34:19;11.00;99.90
19968;DHT22;10145;49.152;9.282;2024-03-23T11:36:46;11.20;99.90
19968;DHT22;10145;49.152;9.282;2024-03-23T11:39:16;11.10;99.90
19968;DHT22;10145;49.152;9.282;2024-03-23T11:44:18;10.20;99.90
19968;DHT22;10145;49.152;9.282;2024-03-23T11:46:43;10.20;99.90
19968;DHT22;10145;49.152;9.282;2024-03-23T11:49:26;10.20;99.90
19968;DHT22;10145;49.152;9.282;2024-03-23T11:51:53;10.50;99.90
19968;DHT22;10145;49.152;9.282;2024-03-23T11:54:22;10.50;99.90
19968;DHT22;10145;49.152;9.282;2024-03-23T11:56:58;10.70;99.90
19968;DHT22;10145;49.152;9.282;2024-03-23T11:59:35;11.10;99.90
19968;DHT22;10145;49.152;9.282;2024-03-23T12:02:06;11.40;99.90
19968;DHT22;10145;49.152;9.282;2024-03-23T12:04:33;11.90;99.90
19968;DHT22;10145;49.152;9.282;2024-03-23T12:07:16;12.10;99.90
19968;DHT22;10145;49.152;9.282;2024-03-23T12:09:44;11.80;99.90
19968;DHT22;10145;49.152;9.282;2024-03-23T12:12:18;11.40;99.90
19968;DHT22;10145;49.152;9.282;2024-03-23T12:14:44;11.10;99.90
19968;DHT22;10145;49.152;9.282;2024-03-23T12:17:11;11.00;99.90
19968;DHT22;10145;49.152;9.282;2024-03-23T12:19:37;11.00;99.90
19968;DHT22;10145;49.152;9.282;2024-03-23T12:22:04;11.30;99.90
19968;DHT22;10145;49.152;9.282;2024-03-23T12:24:30;11.50;99.90
19968;DHT22;10145;49.152;9.282;2024-03-23T12:27:03;11.70;99.90
19968;DHT22;10145;49.152;9.282;2024-03-23T12:29:31;11.80;99.90
19968;DHT22;10145;49.152;9.282;2024-03-23T12:31:59;11.60;99.90
19968;DHT22;10145;49.152;9.282;2024-03-23T12:34:25;11.70;99.90
19968;DHT22;10145;49.152;9.282;2024-03-23T12:36:51;11.90;99.90
19968;DHT22;10145;49.152;9.282;2024-03-23T12:39:16;12.00;99.90
19968;DHT22;10145;49.152;9.282;2024-03-23T12:41:42;12.20;99.90
19968;DHT22;10145;49.152;9.282;2024-03-23T12:44:08;12.30;99.90
19968;DHT22;10145;49.152;9.282;2024-03-23T12:46:37;12.70;99.90
19968;DHT22;10145;49.152;9.282;2024-03-23T12:49:02;12.80;99.90
19968;DHT22;10145;49.152;9.282;2024-03-23T12:51:28;12.90;99.90
19968;DHT22;10145;49.152;9.282;2024-03-23T12:53:53;12.90;99.90
19968;DHT22;10145;49.152;9.282;2024-03-23T12:56:19;13.00;99.90
19968;DHT22;10145;49.152;9.282;2024-03-23T12:58:45;12.70;99.90
19968;DHT22;10145;49.152;9.282;2024-03-23T13:01:10;12.60;99.90
19968;DHT22;10145;49.152;9.282;2024-03-23T13:03:36;12.60;99.90
19968;DHT22;10145;49.152;9.282;2024-03-23T13:06:01;12.40;99.90
19968;DHT22;10145;49.152;9.282;2024-03-23T13:08:30;12.50;99.90
19968;DHT22;10145;49.152;9.282;2024-03-23T13:10:55;12.70;99.90
19968;DHT22;10145;49.152;9.282;2024-03-23T13:13:21;12.50;99.90
19968;DHT22;10145;49.152;9.282;2024-03-23T13:15:50;12.00;99.90
19968;DHT22;10145;49.152;9.282;2024-03-23T13:18:16;11.70;99.90
19968;DHT22;10145;49.152;9.282;2024-03-23T13:20:41;11.90;99.90
19968;DHT22;10145;49.152;9.282;2024-03-23T13:23:07;12.00;99.90
19968;DHT22;10145;49.152;9.282;2024-03-23T13:25:32;12.00;99.90
19968;DHT22;10145;49.152;9.282;2024-03-23T13:27:58;11.50;99.90
19968;DHT22;10145;49.152;9.282;2024-03-23T13:30:24;11.00;99.90
19968;DHT22;10145;49.152;9.282;2024-03-23T13:32:49;9.90;99.90
19968;DHT22;10145;49.152;9.282;2024-03-23T13:35:15;8.10;99.90
19968;DHT22;10145;49.152;9.282;2024-03-23T13:37:41;6.90;99.90
19968;DHT22;10145;49.152;9.282;2024-03-23T13:40:07;6.30;99.90
19968;DHT22;10145;49.152;9.282;2024-03-23T13:42:33;6.00;99.90
19968;DHT22;10145;49.152;9.282;2024-03-23T13:44:59;5.80;99.90
19968;DHT22;10145;49.152;9.282;2024-03-23T13:47:24;5.80;99.90
19968;DHT22;10145;49.152;9.282;2024-03-23T13:49:50;5.80;99.90
19968;DHT22;10145;49.152;9.282;2024-03-23T13:52:16;5.90;99.90
19968;DHT22;10145;49.152;9.282;2024-03-23T13:54:41;6.00;99.90
19968;DHT22;10145;49.152;9.282;2024-03-23T13:57:11;6.00;99.90
19968;DHT22;10145;49.152;9.282;2024-03-23T13:59:37;6.10;99.90
19968;DHT22;10145;49.152;9.282;2024-03-23T14:02:03;5.80;99.90
19968;DHT22;10145;49.152;9.282;2024-03-23T14:04:28;5.70;99.90
19968;DHT22;10145;49.152;9.282;2024-03-23T14:06:54;5.80;99.90
19968;DHT22;10145;49.152;9.282;2024-03-23T14:09:20;6.70;99.90
19968;DHT22;10145;49.152;9.282;2024-03-23T14:11:51;9.70;99.90
19968;DHT22;10145;49.152;9.282;2024-03-23T14:14:17;11.10;99.90
19968;DHT22;10145;49.152;9.282;2024-03-23T14:16:43;14.60;99.90
19968;DHT22;10145;49.152;9.282;2024-03-23T14:19:08;17.00;99.90
19968;DHT22;10145;49.152;9.282;2024-03-23T14:21:34;18.80;99.90
19968;DHT22;10145;49.152;9.282;2024-03-23T14:24:00;20.40;99.90
19968;DHT22;10145;49.152;9.282;2024-03-23T14:26:27;20.20;99.90
19968;DHT22;10145;49.152;9.282;2024-03-23T14:28:52;20.50;99.90
19968;DHT22;10145;49.152;9.282;2024-03-23T14:31:18;18.80;99.90
19968;DHT22;10145;49.152;9.282;2024-03-23T14:33:43;16.50;99.90
19968;DHT22;10145;49.152;9.282;2024-03-23T14:36:15;15.80;99.90
19968;DHT22;10145;49.152;9.282;2024-03-23T14:38:42;16.30;99.90
19968;DHT22;10145;49.152;9.282;2024-03-23T14:41:07;17.00;99.90
19968;DHT22;10145;49.152;9.282;2024-03-23T14:43:33;18.70;99.90
19968;DHT22;10145;49.152;9.282;2024-03-23T14:46:09;20.40;99.90
19968;DHT22;10145;49.152;9.282;2024-03-23T14:48:35;21.20;99.90
19968;DHT22;10145;49.152;9.282;2024-03-23T14:51:02;19.90;99.90
19968;DHT22;10145;49.152;9.282;2024-03-23T14:53:32;17.90;99.90
19968;DHT22;10145;49.152;9.282;2024-03-23T14:55:57;18.60;99.90
19968;DHT22;10145;49.152;9.282;2024-03-23T14:58:23;18.50;99.90
19968;DHT22;10145;49.152;9.282;2024-03-23T15:00:50;17.80;99.90
19968;DHT22;10145;49.152;9.282;2024-03-23T15:03:15;15.20;99.90
19968;DHT22;10145;49.152;9.282;2024-03-23T15:05:41;12.90;99.90
19968;DHT22;10145;49.152;9.282;2024-03-23T15:08:07;11.10;99.90
19968;DHT22;10145;49.152;9.282;2024-03-23T15:10:35;9.90;99.90
19968;DHT22;10145;49.152;9.282;2024-03-23T15:13:01;9.00;99.90
19968;DHT22;10145;49.152;9.282;2024-03-23T15:15:27;8.50;99.90
19968;DHT22;10145;49.152;9.282;2024-03-23T15:17:53;8.60;99.90
19968;DHT22;10145;49.152;9.282;2024-03-23T15:20:18;11.00;99.90
19968;DHT22;10145;49.152;9.282;2024-03-23T15:22:44;14.10;99.90
19968;DHT22;10145;49.152;9.282;2024-03-23T15:25:09;14.70;99.90
19968;DHT22;10145;49.152;9.282;2024-03-23T15:27:35;15.20;99.90
19968;DHT22;10145;49.152;9.282;2024-03-23T15:30:02;14.70;99.90
19968;DHT22;10145;49.152;9.282;2024-03-23T15:32:27;13.70;99.90
19968;DHT22;10145;49.152;9.282;2024-03-23T15:34:53;15.20;99.90
19968;DHT22;10145;49.152;9.282;2024-03-23T15:37:18;16.00;99.90
19968;DHT22;10145;49.152;9.282;2024-03-23T15:39:44;16.80;99.90
19968;DHT22;10145;49.152;9.282;2024-03-23T15:42:09;17.60;99.90
19968;DHT22;10145;49.152;9.282;2024-03-23T15:44:35;17.20;99.90
19968;DHT22;10145;49.152;9.282;2024-03-23T15:47:01;16.40;99.90
19968;DHT22;10145;49.152;9.282;2024-03-23T15:49:27;15.80;99.90
19968;DHT22;10145;49.152;9.282;2024-03-23T15:51:52;15.30;99.90
19968;DHT22;10145;49.152;9.282;2024-03-23T15:54:18;15.10;99.90
19968;DHT22;10145;49.152;9.282;2024-03-23T15:56:44;14.30;99.90
19968;DHT22;10145;49.152;9.282;2024-03-23T15:59:09;13.40;99.90
19968;DHT22;10145;49.152;9.282;2024-03-23T16:01:35;12.30;99.90
19968;DHT22;10145;49.152;9.282;2024-03-23T16:04:04;11.70;99.90
19968;DHT22;10145;49.152;9.282;2024-03-23T16:06:29;10.90;99.90
19968;DHT22;10145;49.152;9.282;2024-03-23T16:08:55;10.50;99.90
19968;DHT22;10145;49.152;9.282;2024-03-23T16:11:20;10.20;99.90
19968;DHT22;10145;49.152;9.282;2024-03-23T16:13:46;10.40;99.90
19968;DHT22;10145;49.152;9.282;2024-03-23T16:16:12;11.10;99.90
19968;DHT22;10145;49.152;9.282;2024-03-23T16:18:38;10.70;99.90
19968;DHT22;10145;49.152;9.282;2024-03-23T16:21:07;10.00;99.90
19968;DHT22;10145;49.152;9.282;2024-03-23T16:23:34;9.40;99.90
19968;DHT22;10145;49.152;9.282;2024-03-23T16:26:00;8.90;99.90
19968;DHT22;10145;49.152;9.282;2024-03-23T16:28:27;8.60;99.90
19968;DHT22;10145;49.152;9.282;2024-03-23T16:33:22;8.20;99.90